GMTN

Saniat Rmel Airport

Morocco
METAR GMTN 201900Z VRB02KT 7000 FEW010 BKN020TCU 19/16 Q1014 NOSIG
Observed Flight Rules
Oct-20 @ 19:00 UTC (52 minutes ago) Marginal Visual Flight Rules
Wind Visibility Clouds
Variable at 2 knots 7,001 meters
  • Few at 1,000' AGL
  • Broken at 2,000' AGL
Temperatures Readings
Current 19°C / 66°F
Dewpoint 16°C / 61°F
Humidity 83%
Altimeter 29.94" Hg
Pressure 1014 hPa
Elevation 10
METAR GMTN 201900Z VRB02KT 7000 FEW010 BKN020TCU 19/16 Q1014 NOSIG
Observed Flight Rules
Oct-20 @ 19:00 UTC
(52 minutes ago)
MVFR
Wind Visibility
Variable at 2 knots 7,001 meters
Clouds
  • Few at 1,000' AGL
  • Broken at 2,000' AGL
Temperature Dewpoint
19°C / 66°F 16°C / 61°F
Humidity Altimeter Pressure
83% 29.94" Hg 1014 hPa